KHGR

Hagerstown Regional-Richard A Henson Field Airport

Hagerstown, Maryland, USA
METAR KHGR 271153Z 29004KT 8SM SCT110 22/21 A2993 RMK AO2 SLP139 60001 70071 T02220206 10233 20211 53010
Observed Flight Rules
May-27 @ 11:53 UTC (14 minutes ago) Visual Flight Rules
Wind Visibility Clouds
290° at 4 knots 8 miles
  • Scattered at 11,000' AGL
Temperatures Readings
Current 22°C / 72°F
Dewpoint 21°C / 70°F
Humidity 94%
Altimeter 29.93" Hg
Pressure 1013.9 hPa
Elevation 224
METAR KHGR 271153Z 29004KT 8SM SCT110 22/21 A2993 RMK AO2 SLP139 60001 70071 T02220206 10233 20211 53010
Observed Flight Rules
May-27 @ 11:53 UTC
(14 minutes ago)
VFR
Wind Visibility
290° at 4 knots 8 miles
Clouds
  • Scattered at 11,000' AGL
Temperature Dewpoint
22°C / 72°F 21°C / 70°F
Humidity Altimeter Pressure
94% 29.93" Hg 1013.9 hPa